Time;durP1;ratioP1;P1;durP2;ratioP2;P2;SDS_P1;SDS_P2;PMS_P1;PMS_P2;Temp;Humidity;BMP_temperature;BMP_pressure;BME280_temperature;BME280_humidity;BME280_pressure;Samples;Min_cycle;Max_cycle;Signal;HPM_P1;HPM_P2
2021/11/14 00:00:33;;;;;;;;;;;;;;;15.24;74.74;101442.56;1048938;28;1486;-58
2021/11/14 00:01:24;;;;;;;;;;;;;;;15.22;74.86;101436.47;1050020;28;1654;-59
2021/11/14 00:02:14;;;;;;;;;;;;;;;15.22;74.68;101439.16;1049224;28;1353;-60
2021/11/14 00:03:05;;;;;;;;;;;;;;;15.22;74.94;101436.47;1048656;28;1811;-59
2021/11/14 00:03:56;;;;;;;;;;;;;;;15.21;74.57;101435.63;1052816;28;822;-59
2021/11/14 00:04:46;;;;;;;;;;;;;;;15.23;74.36;101443.53;1049843;28;1579;-60
2021/11/14 00:05:37;;;;;;;;;;;;;;;15.22;74.89;101437.34;1048415;28;685;-60
2021/11/14 00:06:27;;;;;;;;;;;;;;;15.23;74.66;101438.16;1048556;28;2008;-60
2021/11/14 00:07:18;;;;;;;;;;;;;;;15.23;74.85;101443.53;1053009;28;1020;-59
2021/11/14 00:08:08;;;;;;;;;;;;;;;15.22;74.74;101442.69;1049759;28;1913;-59
2021/11/14 00:08:59;;;;;;;;;;;;;;;15.22;74.99;101441.84;1047914;28;1707;-60
2021/11/14 00:09:49;;;;;;;;;;;;;;;15.22;74.75;101439.16;1050677;28;1673;-60
2021/11/14 00:10:39;;;;;;;;;;;;;;;15.22;74.79;101440.00;1044901;28;1776;-59
2021/11/14 00:11:30;;;;;;;;;;;;;;;15.22;74.60;101437.34;1045740;28;1840;-59
2021/11/14 00:12:20;;;;;;;;;;;;;;;15.22;74.73;101444.53;1044106;28;992;-59
2021/11/14 00:13:11;;;;;;;;;;;;;;;15.21;74.50;101440.97;1048476;28;1889;-59
2021/11/14 00:14:01;;;;;;;;;;;;;;;15.21;74.69;101437.44;1048402;28;791;-60
2021/11/14 00:14:52;;;;;;;;;;;;;;;15.21;74.85;101440.13;1048664;28;1924;-59
2021/11/14 00:15:42;;;;;;;;;;;;;;;15.21;74.93;101445.50;1047937;28;784;-59
2021/11/14 00:16:33;;;;;;;;;;;;;;;15.22;75.06;101439.16;1047926;28;1978;-60
2021/11/14 00:17:23;;;;;;;;;;;;;;;15.22;74.76;101441.84;1048361;28;736;-60
2021/11/14 00:18:14;;;;;;;;;;;;;;;15.22;74.35;101448.06;1048507;28;1867;-60
2021/11/14 00:19:04;;;;;;;;;;;;;;;15.22;74.68;101452.59;1048345;28;777;-60
2021/11/14 00:19:54;;;;;;;;;;;;;;;15.21;74.78;101448.19;1048527;28;1873;-60
2021/11/14 00:20:45;;;;;;;;;;;;;;;15.22;74.39;101448.06;1048430;28;1641;-59
2021/11/14 00:21:40;;;;;;;;;;;;;;;15.21;74.41;101457.09;1051791;28;1925;-60
2021/11/14 00:22:31;;;;;;;;;;;;;;;15.21;75.15;101450.88;1048508;28;1778;-59
2021/11/14 00:23:21;;;;;;;;;;;;;;;15.20;74.59;101455.38;1048278;28;1896;-59
2021/11/14 00:24:11;;;;;;;;;;;;;;;15.20;74.67;101454.53;1048657;28;1453;-59
2021/11/14 00:25:02;;;;;;;;;;;;;;;15.20;74.76;101450.00;1049004;28;1744;-60
2021/11/14 00:25:52;;;;;;;;;;;;;;;15.21;74.56;101461.59;1048489;28;1158;-59
2021/11/14 00:26:43;;;;;;;;;;;;;;;15.20;74.61;101460.75;1044930;28;1558;-60
2021/11/14 00:27:33;;;;;;;;;;;;;;;15.20;74.76;101452.69;1047771;28;1318;-60
2021/11/14 00:28:24;;;;;;;;;;;;;;;15.21;74.43;101456.25;1049222;28;1705;-61
2021/11/14 00:29:14;;;;;;;;;;;;;;;15.21;74.75;101448.19;1048285;28;1584;-61
2021/11/14 00:30:04;;;;;;;;;;;;;;;15.21;74.93;101456.25;1048547;28;1575;-61
2021/11/14 00:30:55;;;;;;;;;;;;;;;15.21;74.31;101450.88;1050265;28;1705;-59
2021/11/14 00:31:45;;;;;;;;;;;;;;;15.20;74.34;101455.38;1052075;28;743;-61
2021/11/14 00:32:36;;;;;;;;;;;;;;;15.20;74.72;101454.53;1048606;28;1959;-59
2021/11/14 00:33:26;;;;;;;;;;;;;;;15.20;74.72;101458.06;1049227;28;1492;-60
2021/11/14 00:34:17;;;;;;;;;;;;;;;15.20;74.60;101459.91;1048598;28;1533;-60
2021/11/14 00:35:08;;;;;;;;;;;;;;;15.20;74.42;101462.56;1049061;28;1432;-59
2021/11/14 00:35:59;;;;;;;;;;;;;;;15.21;74.43;101466.97;1049888;28;728;-60
2021/11/14 00:36:53;;;;;;;;;;;;;;;15.20;74.75;101460.75;1049169;28;712;-60
2021/11/14 00:37:43;;;;;;;;;;;;;;;15.20;74.69;101459.91;1048655;28;1216;-59
2021/11/14 00:38:33;;;;;;;;;;;;;;;15.19;75.00;101469.78;1047928;28;653;-60
2021/11/14 00:39:24;;;;;;;;;;;;;;;15.19;74.53;101463.53;1048133;28;1009;-60
2021/11/14 00:40:14;;;;;;;;;;;;;;;15.20;74.59;101465.25;1047977;28;728;-60
2021/11/14 00:41:05;;;;;;;;;;;;;;;15.20;74.93;101462.56;1050654;28;1976;-60
2021/11/14 00:41:55;;;;;;;;;;;;;;;15.19;74.49;101466.22;1052445;28;908;-60
2021/11/14 00:42:46;;;;;;;;;;;;;;;15.19;74.94;101467.09;1048929;28;2014;-60
2021/11/14 00:43:36;;;;;;;;;;;;;;;15.19;74.63;101464.41;1047920;28;814;-60
2021/11/14 00:44:26;;;;;;;;;;;;;;;15.20;74.93;101465.25;1047916;28;2125;-60
2021/11/14 00:45:17;;;;;;;;;;;;;;;15.19;75.10;101463.53;1049218;28;673;-59
2021/11/14 00:46:07;;;;;;;;;;;;;;;15.20;74.64;101470.63;1049116;28;2105;-60
2021/11/14 00:46:58;;;;;;;;;;;;;;;15.19;74.31;101463.53;1048967;28;630;-60
2021/11/14 00:47:48;;;;;;;;;;;;;;;15.19;74.27;101463.53;1049810;28;1382;-60
2021/11/14 00:48:41;;;;;;;;;;;;;;;15.19;74.57;101471.59;1051909;28;1647;-60
2021/11/14 00:49:33;;;;;;;;;;;;;;;15.19;74.71;101469.78;1048772;28;1748;-59
2021/11/14 00:50:23;;;;;;;;;;;;;;;15.18;74.54;101472.56;1050254;28;1612;-60
2021/11/14 00:51:14;;;;;;;;;;;;;;;15.18;74.43;101472.56;1049052;28;1642;-59
2021/11/14 00:52:04;;;;;;;;;;;;;;;15.19;74.64;101471.59;1050258;28;1196;-59
2021/11/14 00:52:57;;;;;;;;;;;;;;;15.19;74.44;101474.28;1049091;28;1685;-58
2021/11/14 00:53:47;;;;;;;;;;;;;;;15.18;74.83;101475.25;1053086;28;1246;-60
2021/11/14 00:54:38;;;;;;;;;;;;;;;15.19;74.94;101479.66;1048617;28;1511;-59
2021/11/14 00:55:30;;;;;;;;;;;;;;;15.18;74.29;101477.94;1050496;28;1310;-59
2021/11/14 00:56:20;;;;;;;;;;;;;;;15.18;74.45;101475.25;1048955;28;1490;-60
2021/11/14 00:57:11;;;;;;;;;;;;;;;15.18;74.90;101472.56;1049282;28;1503;-60
2021/11/14 00:58:01;;;;;;;;;;;;;;;15.18;74.75;101472.56;1047465;28;1551;-60
2021/11/14 00:58:51;;;;;;;;;;;;;;;15.18;74.82;101477.94;1046725;28;1476;-58
2021/11/14 00:59:42;;;;;;;;;;;;;;;15.17;74.51;101477.06;1049813;28;1573;-59
2021/11/14 01:00:32;;;;;;;;;;;;;;;15.17;74.62;101474.41;1051900;28;1699;-59
2021/11/14 01:01:23;;;;;;;;;;;;;;;15.18;74.30;101477.94;1048851;28;822;-59
2021/11/14 01:02:13;;;;;;;;;;;;;;;15.17;74.68;101481.59;1048705;28;1109;-59
2021/11/14 01:03:04;;;;;;;;;;;;;;;15.17;74.77;101481.59;1048578;28;797;-59
2021/11/14 01:03:54;;;;;;;;;;;;;;;15.17;74.62;101478.91;1048959;28;782;-59
2021/11/14 01:04:44;;;;;;;;;;;;;;;15.18;74.44;101483.31;1048521;28;870;-58
2021/11/14 01:05:35;;;;;;;;;;;;;;;15.18;74.36;101480.63;1048980;28;677;-58
2021/11/14 01:06:25;;;;;;;;;;;;;;;15.17;75.02;101482.44;1048623;28;835;-58
2021/11/14 01:07:16;;;;;;;;;;;;;;;15.19;74.80;101485.03;1048830;28;1405;-58
2021/11/14 01:08:06;;;;;;;;;;;;;;;15.18;74.80;101486.00;1049324;28;725;-58
2021/11/14 01:08:56;;;;;;;;;;;;;;;15.20;75.06;101486.75;1048603;28;781;-59
2021/11/14 01:09:47;;;;;;;;;;;;;;;15.20;74.96;101486.75;1051977;28;1642;-59
2021/11/14 01:10:37;;;;;;;;;;;;;;;15.20;74.35;101490.28;1053122;28;1712;-59
2021/11/14 01:11:28;;;;;;;;;;;;;;;15.20;74.85;101486.75;1050649;28;1563;-59
2021/11/14 01:12:18;;;;;;;;;;;;;;;15.18;74.66;101486.84;1053324;28;1546;-59
2021/11/14 01:13:08;;;;;;;;;;;;;;;15.20;74.63;101486.75;1051475;28;1479;-59
2021/11/14 01:13:59;;;;;;;;;;;;;;;15.18;74.92;101499.41;1053242;28;1636;-60
2021/11/14 01:14:49;;;;;;;;;;;;;;;15.19;75.16;101495.75;1051516;28;1583;-59
2021/11/14 01:15:40;;;;;;;;;;;;;;;15.18;75.18;101497.59;1052861;28;1544;-59
2021/11/14 01:16:30;;;;;;;;;;;;;;;15.18;74.96;101489.53;1045238;28;1575;-59
2021/11/14 01:17:21;;;;;;;;;;;;;;;15.18;74.82;101494.03;1053070;28;1157;-59
2021/11/14 01:18:11;;;;;;;;;;;;;;;15.17;74.77;101492.34;1049343;28;1558;-59
2021/11/14 01:19:01;;;;;;;;;;;;;;;15.17;74.79;101495.88;1049585;28;1660;-59
2021/11/14 01:19:52;;;;;;;;;;;;;;;15.17;74.84;101492.34;1051684;28;1559;-59
2021/11/14 01:20:42;;;;;;;;;;;;;;;15.16;74.69;101496.84;1051193;28;1584;-59
2021/11/14 01:21:33;;;;;;;;;;;;;;;15.16;75.04;101502.22;1050421;28;1667;-59
2021/11/14 01:22:23;;;;;;;;;;;;;;;15.17;74.67;101500.38;1052496;28;1577;-59
2021/11/14 01:23:14;;;;;;;;;;;;;;;15.17;75.03;101500.38;1052635;28;845;-58
2021/11/14 01:24:04;;;;;;;;;;;;;;;15.16;74.57;101509.41;1052198;28;823;-57
2021/11/14 01:24:55;;;;;;;;;;;;;;;15.16;75.12;101510.25;1052909;28;826;-57
2021/11/14 01:25:45;;;;;;;;;;;;;;;15.16;75.18;101512.94;1053051;28;886;-57
2021/11/14 01:26:36;;;;;;;;;;;;;;;15.16;75.17;101512.94;1052883;28;641;-58
2021/11/14 01:27:26;;;;;;;;;;;;;;;15.15;75.01;101515.75;1053074;28;940;-56
2021/11/14 01:28:17;;;;;;;;;;;;;;;15.17;74.74;101516.50;1052405;28;740;-56
2021/11/14 01:29:08;;;;;;;;;;;;;;;15.17;75.17;101511.97;1052214;28;729;-55
2021/11/14 01:29:58;;;;;;;;;;;;;;;15.16;75.18;101515.63;1052989;28;856;-57
2021/11/14 01:30:48;;;;;;;;;;;;;;;15.16;74.73;101518.31;1052713;28;896;-57
2021/11/14 01:31:39;;;;;;;;;;;;;;;15.17;74.95;101513.81;1052772;28;856;-56
2021/11/14 01:32:29;;;;;;;;;;;;;;;15.17;75.04;101521.88;1053004;28;1897;-58
2021/11/14 01:33:20;;;;;;;;;;;;;;;15.16;75.08;101517.47;1052899;28;933;-57
2021/11/14 01:34:10;;;;;;;;;;;;;;;15.14;75.04;101517.56;1053024;28;775;-57
2021/11/14 01:35:00;;;;;;;;;;;;;;;15.14;74.68;101514.88;1052761;28;714;-57
2021/11/14 01:35:53;;;;;;;;;;;;;;;15.15;74.88;101521.13;1052859;28;915;-57
2021/11/14 01:36:43;;;;;;;;;;;;;;;15.14;75.00;101522.94;1052192;28;615;-57
2021/11/14 01:37:34;;;;;;;;;;;;;;;15.14;74.80;101519.41;1052805;28;1076;-57
2021/11/14 01:38:25;;;;;;;;;;;;;;;15.14;74.67;101524.78;1049399;28;740;-57
2021/11/14 01:39:16;;;;;;;;;;;;;;;15.14;74.99;101519.41;1049395;28;765;-57
2021/11/14 01:40:06;;;;;;;;;;;;;;;15.14;75.29;101525.63;1048695;28;1875;-57
2021/11/14 01:40:57;;;;;;;;;;;;;;;15.14;74.93;101527.44;1049245;28;755;-57
2021/11/14 01:41:47;;;;;;;;;;;;;;;15.13;74.91;101523.91;1049453;28;649;-57
2021/11/14 01:42:37;;;;;;;;;;;;;;;15.13;74.99;101523.06;1048283;28;737;-57
2021/11/14 01:43:28;;;;;;;;;;;;;;;15.15;74.89;101526.47;1048837;28;970;-58
2021/11/14 01:44:18;;;;;;;;;;;;;;;15.14;74.69;101531.00;1049279;28;858;-57
2021/11/14 01:45:09;;;;;;;;;;;;;;;15.14;75.25;101530.13;1049312;28;751;-57
2021/11/14 01:45:59;;;;;;;;;;;;;;;15.14;74.84;101536.38;1049322;28;877;-58
2021/11/14 01:46:50;;;;;;;;;;;;;;;15.15;74.53;101529.16;1048503;28;722;-58
2021/11/14 01:47:40;;;;;;;;;;;;;;;15.15;74.46;101532.72;1049071;28;1203;-58
2021/11/14 01:48:31;;;;;;;;;;;;;;;15.15;74.76;101531.84;1048659;28;926;-57
2021/11/14 01:49:21;;;;;;;;;;;;;;;15.14;75.11;101532.81;1049226;28;630;-57
2021/11/14 01:50:12;;;;;;;;;;;;;;;15.14;74.69;101530.13;1048998;28;806;-56
2021/11/14 01:51:02;;;;;;;;;;;;;;;15.13;74.50;101534.66;1049157;28;653;-57
2021/11/14 01:51:53;;;;;;;;;;;;;;;15.14;75.03;101538.19;1049094;28;640;-57
2021/11/14 01:52:43;;;;;;;;;;;;;;;15.14;74.90;101549.78;1048966;28;1910;-58
2021/11/14 01:53:34;;;;;;;;;;;;;;;15.13;75.22;101533.78;1048096;28;811;-57
2021/11/14 01:54:25;;;;;;;;;;;;;;;15.14;74.58;101540.88;1048007;28;867;-57
2021/11/14 01:55:15;;;;;;;;;;;;;;;15.13;74.55;101544.53;1048634;28;651;-57
2021/11/14 01:56:05;;;;;;;;;;;;;;;15.14;74.50;101540.88;1048491;28;693;-57
2021/11/14 01:56:56;;;;;;;;;;;;;;;15.13;74.95;101539.16;1048071;28;669;-57
2021/11/14 01:57:46;;;;;;;;;;;;;;;15.13;75.01;101544.53;1048028;28;2098;-57
2021/11/14 01:58:37;;;;;;;;;;;;;;;15.13;75.16;101549.91;1049102;28;622;-57
2021/11/14 01:59:30;;;;;;;;;;;;;;;15.12;74.43;101542.81;1049320;28;696;-57
2021/11/14 02:00:21;;;;;;;;;;;;;;;15.12;74.86;101554.41;1047812;28;705;-58
2021/11/14 02:01:12;;;;;;;;;;;;;;;15.13;75.21;101552.59;1049175;28;1015;-56
2021/11/14 02:02:02;;;;;;;;;;;;;;;15.11;74.53;101552.69;1048617;28;1045;-57
2021/11/14 02:02:53;;;;;;;;;;;;;;;15.12;75.15;101541.00;1048988;28;798;-57
2021/11/14 02:03:43;;;;;;;;;;;;;;;15.11;75.31;101551.84;1049307;28;691;-57
2021/11/14 02:04:34;;;;;;;;;;;;;;;15.12;75.08;101553.56;1049137;28;693;-57
2021/11/14 02:05:24;;;;;;;;;;;;;;;15.11;74.80;101547.31;1049218;28;851;-57
2021/11/14 02:06:14;;;;;;;;;;;;;;;15.13;74.81;101552.59;1048930;28;1817;-56
2021/11/14 02:07:05;;;;;;;;;;;;;;;15.12;74.96;101551.72;1049151;28;810;-56
2021/11/14 02:07:55;;;;;;;;;;;;;;;15.13;74.92;101552.59;1049269;28;724;-56
2021/11/14 02:08:46;;;;;;;;;;;;;;;15.13;75.22;101555.25;1049188;28;795;-58
2021/11/14 02:09:36;;;;;;;;;;;;;;;15.11;74.67;101550.00;1049254;28;830;-59
2021/11/14 02:10:27;;;;;;;;;;;;;;;15.12;75.08;101549.03;1049153;28;665;-59
2021/11/14 02:11:17;;;;;;;;;;;;;;;15.11;74.82;101544.63;1049148;28;861;-59
2021/11/14 02:12:08;;;;;;;;;;;;;;;15.12;74.88;101549.03;1049064;28;803;-59
2021/11/14 02:12:58;;;;;;;;;;;;;;;15.12;74.75;101553.56;1049208;28;1956;-59
2021/11/14 02:13:48;;;;;;;;;;;;;;;15.11;74.73;101546.47;1048942;28;713;-59
2021/11/14 02:14:39;;;;;;;;;;;;;;;15.10;74.90;101550.97;1049053;28;634;-59
2021/11/14 02:15:29;;;;;;;;;;;;;;;15.12;75.01;101553.56;1049205;28;809;-59
2021/11/14 02:16:20;;;;;;;;;;;;;;;15.12;75.08;101558.91;1048962;28;1762;-59
2021/11/14 02:17:10;;;;;;;;;;;;;;;15.11;74.66;101551.84;1049028;28;720;-59
2021/11/14 02:18:01;;;;;;;;;;;;;;;15.11;74.95;101559.88;1044651;28;730;-59
2021/11/14 02:18:51;;;;;;;;;;;;;;;15.12;74.64;101564.28;1044732;28;784;-59
2021/11/14 02:19:42;;;;;;;;;;;;;;;15.11;75.08;101560.75;1048913;28;835;-59
2021/11/14 02:20:32;;;;;;;;;;;;;;;15.11;75.04;101558.06;1048950;28;649;-59
2021/11/14 02:21:23;;;;;;;;;;;;;;;15.11;75.05;101563.44;1044674;28;720;-59
2021/11/14 02:22:13;;;;;;;;;;;;;;;15.10;74.67;101561.72;1044268;28;712;-59
2021/11/14 02:23:06;;;;;;;;;;;;;;;15.11;74.99;101562.56;1048823;28;699;-59
2021/11/14 02:23:56;;;;;;;;;;;;;;;15.11;75.16;101562.56;1049092;28;968;-59
2021/11/14 02:24:47;;;;;;;;;;;;;;;15.09;75.14;101556.44;1048771;28;690;-59
2021/11/14 02:25:37;;;;;;;;;;;;;;;15.10;75.27;101563.53;1048944;28;697;-59
2021/11/14 02:26:27;;;;;;;;;;;;;;;15.10;74.69;101560.84;1049453;28;629;-59
2021/11/14 02:27:18;;;;;;;;;;;;;;;15.09;75.33;101557.31;1049033;28;732;-59
2021/11/14 02:28:08;;;;;;;;;;;;;;;15.10;75.19;101567.09;1049093;28;926;-59
2021/11/14 02:28:59;;;;;;;;;;;;;;;15.11;74.92;101567.94;1049041;28;769;-59
2021/11/14 02:29:49;;;;;;;;;;;;;;;15.11;75.14;101567.94;1049024;28;716;-59
2021/11/14 02:30:40;;;;;;;;;;;;;;;15.11;74.75;101567.94;1049493;28;677;-59
2021/11/14 02:31:30;;;;;;;;;;;;;;;15.10;75.00;101571.59;1049092;28;670;-60
2021/11/14 02:32:20;;;;;;;;;;;;;;;15.10;74.88;101572.44;1049133;28;724;-60
2021/11/14 02:33:11;;;;;;;;;;;;;;;15.10;74.65;101572.44;1048559;28;748;-60
2021/11/14 02:34:01;;;;;;;;;;;;;;;15.10;75.05;101563.53;1049144;28;836;-60
2021/11/14 02:34:52;;;;;;;;;;;;;;;15.08;74.91;101563.66;1048976;28;791;-60
2021/11/14 02:35:42;;;;;;;;;;;;;;;15.09;74.93;101569.88;1049758;28;1905;-58
2021/11/14 02:36:32;;;;;;;;;;;;;;;15.10;75.10;101568.91;1051925;28;854;-58
2021/11/14 02:37:23;;;;;;;;;;;;;;;15.09;74.95;101569.88;1052441;28;1032;-59
2021/11/14 02:38:15;;;;;;;;;;;;;;;15.09;75.25;101568.03;1052646;28;745;-59
2021/11/14 02:39:05;;;;;;;;;;;;;;;15.08;74.87;101578.91;1052761;28;782;-59
2021/11/14 02:39:55;;;;;;;;;;;;;;;15.08;75.22;101570.84;1052334;28;789;-59
2021/11/14 02:40:46;;;;;;;;;;;;;;;15.07;74.80;101578.03;1051893;28;837;-59
2021/11/14 02:41:36;;;;;;;;;;;;;;;15.07;75.44;101577.19;1052691;28;646;-59
2021/11/14 02:42:27;;;;;;;;;;;;;;;15.07;75.31;101566.44;1052438;28;851;-59
2021/11/14 02:43:17;;;;;;;;;;;;;;;15.07;75.15;101574.50;1052457;28;734;-57
2021/11/14 02:44:08;;;;;;;;;;;;;;;15.07;74.78;101572.66;1051292;28;1578;-59
2021/11/14 02:44:58;;;;;;;;;;;;;;;15.08;75.32;101573.53;1051889;28;867;-57
2021/11/14 02:45:48;;;;;;;;;;;;;;;15.09;74.83;101575.25;1052211;28;816;-57
2021/11/14 02:46:39;;;;;;;;;;;;;;;15.07;74.86;101574.50;1051911;28;1474;-58
2021/11/14 02:47:29;;;;;;;;;;;;;;;15.08;74.68;101571.69;1052532;28;1222;-55
2021/11/14 02:48:20;;;;;;;;;;;;;;;15.07;74.95;101574.50;1051873;28;829;-57
2021/11/14 02:49:10;;;;;;;;;;;;;;;15.07;75.04;101571.81;1052618;28;785;-57
2021/11/14 02:50:01;;;;;;;;;;;;;;;15.08;74.99;101576.22;1052354;28;752;-56
2021/11/14 02:50:51;;;;;;;;;;;;;;;15.08;74.93;101573.53;1052578;28;808;-58
2021/11/14 02:51:42;;;;;;;;;;;;;;;15.08;74.90;101573.53;1051754;28;630;-58
2021/11/14 02:52:32;;;;;;;;;;;;;;;15.08;75.16;101581.56;1051839;28;1901;-58
2021/11/14 02:53:22;;;;;;;;;;;;;;;15.08;75.18;101578.91;1051690;28;881;-56
2021/11/14 02:54:13;;;;;;;;;;;;;;;15.08;75.38;101573.53;1050949;28;1921;-57
2021/11/14 02:55:03;;;;;;;;;;;;;;;15.06;75.13;101573.63;1048933;28;820;-57
2021/11/14 02:55:54;;;;;;;;;;;;;;;15.05;75.17;101579.13;1048938;28;634;-58
2021/11/14 02:56:44;;;;;;;;;;;;;;;15.06;74.94;101586.19;1049079;28;740;-57
2021/11/14 02:57:35;;;;;;;;;;;;;;;15.07;75.24;101582.53;1048774;28;682;-57
2021/11/14 02:58:25;;;;;;;;;;;;;;;15.06;75.21;101581.69;1048946;28;778;-57
2021/11/14 02:59:15;;;;;;;;;;;;;;;15.07;75.28;101582.53;1051045;28;791;-57
2021/11/14 03:00:06;;;;;;;;;;;;;;;15.06;75.28;101584.38;1053009;28;622;-57
2021/11/14 03:00:57;;;;;;;;;;;;;;;15.06;74.71;101581.69;1053197;28;797;-58
2021/11/14 03:01:47;;;;;;;;;;;;;;;15.05;75.13;101577.28;1053042;28;812;-59
2021/11/14 03:02:38;;;;;;;;;;;;;;;15.06;75.21;101583.50;1053110;28;681;-58
2021/11/14 03:03:28;;;;;;;;;;;;;;;15.05;75.33;101587.19;1053196;28;916;-59
2021/11/14 03:04:19;;;;;;;;;;;;;;;15.06;75.13;101587.06;1052388;28;1814;-58
2021/11/14 03:05:10;;;;;;;;;;;;;;;15.06;74.79;101588.88;1048147;28;811;-59
2021/11/14 03:06:00;;;;;;;;;;;;;;;15.06;74.99;101586.19;1048456;28;704;-59
2021/11/14 03:06:52;;;;;;;;;;;;;;;15.06;74.77;101584.38;1048270;28;753;-58
2021/11/14 03:07:42;;;;;;;;;;;;;;;15.07;74.71;101585.22;1045845;28;1039;-58
2021/11/14 03:08:33;;;;;;;;;;;;;;;15.06;75.00;101594.25;1044927;28;724;-57
2021/11/14 03:09:23;;;;;;;;;;;;;;;15.06;74.69;101589.75;1048538;28;727;-58
2021/11/14 03:10:14;;;;;;;;;;;;;;;15.06;75.01;101591.56;1048249;28;712;-58
2021/11/14 03:11:04;;;;;;;;;;;;;;;15.06;75.57;101596.94;1048486;28;805;-58
2021/11/14 03:11:55;;;;;;;;;;;;;;;15.05;75.38;101601.44;1048544;28;865;-59
2021/11/14 03:12:45;;;;;;;;;;;;;;;15.06;75.30;101596.94;1048380;28;1989;-59
2021/11/14 03:13:35;;;;;;;;;;;;;;;15.05;75.26;101595.25;1048575;28;689;-59
2021/11/14 03:14:26;;;;;;;;;;;;;;;15.06;75.04;101607.66;1048055;28;699;-59
2021/11/14 03:15:17;;;;;;;;;;;;;;;15.05;75.26;101600.63;1047785;28;838;-59
2021/11/14 03:16:07;;;;;;;;;;;;;;;15.04;74.79;101593.53;1048923;28;856;-59
2021/11/14 03:16:58;;;;;;;;;;;;;;;15.04;75.36;101601.59;1047526;28;629;-59
2021/11/14 03:17:48;;;;;;;;;;;;;;;15.04;74.71;101598.91;1047980;28;819;-59
2021/11/14 03:18:38;;;;;;;;;;;;;;;15.04;75.13;101596.22;1048107;28;754;-59
2021/11/14 03:19:29;;;;;;;;;;;;;;;15.04;75.12;101609.63;1047730;28;662;-59
2021/11/14 03:20:19;;;;;;;;;;;;;;;15.05;74.81;101603.31;1047764;28;908;-59
2021/11/14 03:21:10;;;;;;;;;;;;;;;15.04;74.72;101599.75;1047640;28;778;-59
2021/11/14 03:22:00;;;;;;;;;;;;;;;15.04;75.18;101599.75;1047791;28;818;-59
2021/11/14 03:22:50;;;;;;;;;;;;;;;15.05;74.96;101600.63;1048058;28;714;-59
2021/11/14 03:23:41;;;;;;;;;;;;;;;15.05;74.88;101606.00;1047799;28;825;-59
2021/11/14 03:24:31;;;;;;;;;;;;;;;15.04;74.90;101601.59;1047819;28;868;-59
2021/11/14 03:25:22;;;;;;;;;;;;;;;15.02;75.07;101609.75;1049332;28;757;-59
2021/11/14 03:26:12;;;;;;;;;;;;;;;15.04;74.84;101605.13;1049413;28;823;-59
2021/11/14 03:27:03;;;;;;;;;;;;;;;15.04;75.18;101606.94;1049183;28;799;-59
2021/11/14 03:27:53;;;;;;;;;;;;;;;15.04;75.14;101609.63;1049308;28;813;-59
2021/11/14 03:28:43;;;;;;;;;;;;;;;15.04;74.81;101609.63;1049381;28;793;-59
2021/11/14 03:29:34;;;;;;;;;;;;;;;15.03;75.44;101607.91;1049300;28;653;-59
2021/11/14 03:30:24;;;;;;;;;;;;;;;15.03;75.06;101613.28;1049244;28;782;-59
2021/11/14 03:31:15;;;;;;;;;;;;;;;15.05;75.18;101611.34;1049224;28;709;-59
2021/11/14 03:32:05;;;;;;;;;;;;;;;15.04;75.14;101617.69;1049335;28;683;-59
2021/11/14 03:32:55;;;;;;;;;;;;;;;15.05;74.89;101619.41;1049295;28;1878;-59
2021/11/14 03:33:46;;;;;;;;;;;;;;;15.04;75.04;101615.00;1049320;28;643;-59
2021/11/14 03:34:36;;;;;;;;;;;;;;;15.04;74.81;101617.69;1049411;28;834;-60
2021/11/14 03:35:27;;;;;;;;;;;;;;;15.04;75.39;101620.38;1048795;28;622;-59
2021/11/14 03:36:17;;;;;;;;;;;;;;;15.03;74.79;101624.03;1048922;28;782;-59
2021/11/14 03:37:07;;;;;;;;;;;;;;;15.03;75.25;101621.34;1049287;28;862;-59
2021/11/14 03:37:58;;;;;;;;;;;;;;;15.02;74.99;101625.84;1048813;28;762;-59
2021/11/14 03:38:48;;;;;;;;;;;;;;;15.02;75.27;101622.31;1048868;28;865;-59
2021/11/14 03:39:39;;;;;;;;;;;;;;;15.03;75.33;101621.34;1048726;28;678;-59
2021/11/14 03:40:29;;;;;;;;;;;;;;;15.02;75.36;101622.31;1048919;28;642;-59
2021/11/14 03:41:19;;;;;;;;;;;;;;;15.04;74.79;101631.09;1048663;28;762;-59
2021/11/14 03:42:10;;;;;;;;;;;;;;;15.03;75.17;101630.25;1048847;28;807;-60
2021/11/14 03:43:00;;;;;;;;;;;;;;;15.02;75.27;101623.16;1048854;28;907;-58
2021/11/14 03:43:51;;;;;;;;;;;;;;;15.03;74.99;101624.88;1048815;28;876;-59
2021/11/14 03:44:41;;;;;;;;;;;;;;;15.03;74.93;101618.66;1048936;28;645;-58
2021/11/14 03:45:32;;;;;;;;;;;;;;;15.01;74.91;101628.63;1047873;28;765;-59
2021/11/14 03:46:22;;;;;;;;;;;;;;;15.01;74.87;101628.63;1048732;28;1591;-58
2021/11/14 03:47:12;;;;;;;;;;;;;;;15.01;75.23;101623.28;1048317;28;740;-58
2021/11/14 03:48:03;;;;;;;;;;;;;;;15.01;75.29;101631.31;1048127;28;715;-58
2021/11/14 03:48:53;;;;;;;;;;;;;;;15.02;74.99;101630.34;1048343;28;1105;-58
2021/11/14 03:49:44;;;;;;;;;;;;;;;15.01;74.74;101629.50;1048078;28;654;-58
2021/11/14 03:50:34;;;;;;;;;;;;;;;15.01;74.92;101625.94;1048324;28;673;-58
2021/11/14 03:51:25;;;;;;;;;;;;;;;15.01;75.43;101632.19;1048051;28;909;-58
2021/11/14 03:52:15;;;;;;;;;;;;;;;15.02;75.19;101638.41;1048237;28;979;-58
2021/11/14 03:53:06;;;;;;;;;;;;;;;15.00;75.51;101633.16;1048041;28;787;-58
2021/11/14 03:53:56;;;;;;;;;;;;;;;15.00;75.29;101638.50;1048124;28;1910;-58
2021/11/14 03:54:46;;;;;;;;;;;;;;;15.01;75.20;101642.06;1048855;28;626;-57
2021/11/14 03:55:37;;;;;;;;;;;;;;;15.01;75.35;101640.22;1048734;28;868;-56
2021/11/14 03:56:29;;;;;;;;;;;;;;;15.01;74.87;101642.91;1048808;28;706;-57
2021/11/14 03:57:19;;;;;;;;;;;;;;;15.01;74.74;101642.91;1047632;28;840;-57
2021/11/14 03:58:10;;;;;;;;;;;;;;;15.02;74.88;101646.47;1048619;28;693;-57
2021/11/14 03:59:00;;;;;;;;;;;;;;;15.02;74.72;101650.00;1047419;28;658;-58
2021/11/14 03:59:50;;;;;;;;;;;;;;;15.01;75.07;101650.13;1048786;28;849;-57
2021/11/14 04:00:41;;;;;;;;;;;;;;;15.01;74.79;101650.13;1048550;28;738;-56
2021/11/14 04:01:31;;;;;;;;;;;;;;;15.01;75.26;101655.47;1048889;28;800;-58
2021/11/14 04:02:22;;;;;;;;;;;;;;;15.00;75.01;101656.44;1048370;28;1290;-58
2021/11/14 04:03:12;;;;;;;;;;;;;;;15.01;75.01;101663.53;1048783;28;738;-57
2021/11/14 04:04:02;;;;;;;;;;;;;;;15.01;75.05;101652.78;1048555;28;1886;-59
2021/11/14 04:04:53;;;;;;;;;;;;;;;15.01;75.44;101658.16;1052802;28;743;-59
2021/11/14 04:05:44;;;;;;;;;;;;;;;15.01;75.15;101658.16;1052773;28;713;-59
2021/11/14 04:06:35;;;;;;;;;;;;;;;15.01;75.21;101663.53;1052284;28;677;-58
2021/11/14 04:07:25;;;;;;;;;;;;;;;15.01;74.94;101660.84;1052214;28;1063;-56
2021/11/14 04:08:16;;;;;;;;;;;;;;;15.00;75.10;101662.66;1051981;28;751;-58
2021/11/14 04:09:06;;;;;;;;;;;;;;;15.01;74.92;101652.78;1052212;28;780;-57
2021/11/14 04:09:56;;;;;;;;;;;;;;;14.99;74.85;101665.47;1052478;28;800;-58
2021/11/14 04:10:47;;;;;;;;;;;;;;;14.99;75.38;101657.41;1052233;28;720;-58
2021/11/14 04:11:37;;;;;;;;;;;;;;;14.99;74.92;101654.72;1052449;28;645;-58
2021/11/14 04:12:28;;;;;;;;;;;;;;;14.99;74.67;101658.28;1052705;28;841;-58
2021/11/14 04:13:18;;;;;;;;;;;;;;;14.99;75.44;101654.72;1052320;28;657;-58
2021/11/14 04:14:08;;;;;;;;;;;;;;;14.98;75.50;101661.91;1051309;28;1976;-58
2021/11/14 04:14:59;;;;;;;;;;;;;;;14.99;75.12;101655.59;1048679;28;707;-58
2021/11/14 04:15:49;;;;;;;;;;;;;;;15.00;74.75;101659.13;1048680;28;807;-58
2021/11/14 04:16:40;;;;;;;;;;;;;;;15.00;74.65;101661.81;1048553;28;928;-58
2021/11/14 04:17:30;;;;;;;;;;;;;;;15.00;75.22;101661.81;1048756;28;610;-58
2021/11/14 04:18:20;;;;;;;;;;;;;;;15.00;74.84;101659.13;1048911;28;871;-58
2021/11/14 04:19:11;;;;;;;;;;;;;;;14.99;75.00;101669.00;1048674;28;686;-59
2021/11/14 04:20:02;;;;;;;;;;;;;;;15.00;75.15;101667.19;1047395;28;751;-59
2021/11/14 04:20:52;;;;;;;;;;;;;;;14.99;74.93;101662.78;1048809;28;870;-59
2021/11/14 04:21:43;;;;;;;;;;;;;;;14.99;75.27;101665.47;1047478;28;751;-58
2021/11/14 04:22:33;;;;;;;;;;;;;;;14.99;74.85;101662.78;1048579;28;1320;-63
2021/11/14 04:23:24;;;;;;;;;;;;;;;14.98;75.33;101663.75;1048653;28;666;-58
2021/11/14 04:24:14;;;;;;;;;;;;;;;14.97;75.11;101670.06;1049927;28;1787;-57
2021/11/14 04:25:04;;;;;;;;;;;;;;;14.97;75.19;101668.25;1053253;28;792;-59